Time;durP1;ratioP1;P1;durP2;ratioP2;P2;SDS_P1;SDS_P2;PMS_P1;PMS_P2;Temp;Humidity;BMP_temperature;BMP_pressure;BME280_temperature;BME280_humidity;BME280_pressure;Samples;Min_cycle;Max_cycle;Signal;HPM_P1;HPM_P2
2022/05/22 00:01:40;;;;;;;4.15;1.67;;;16.20;99.90;;;;;;4156266;28;20030;-66
2022/05/22 00:03:41;;;;;;;7.80;2.05;;;16.20;99.90;;;;;;4155369;28;20037;-66
2022/05/22 00:05:42;;;;;;;4.28;1.70;;;16.20;99.90;;;;;;4153638;28;20045;-68
2022/05/22 00:07:43;;;;;;;5.85;1.88;;;16.20;99.90;;;;;;4153326;28;20030;-67
2022/05/22 00:09:44;;;;;;;5.45;1.85;;;16.20;99.90;;;;;;4152438;28;20117;-66
2022/05/22 00:11:45;;;;;;;5.25;1.90;;;16.20;99.90;;;;;;4155722;28;20048;-67
2022/05/22 00:13:45;;;;;;;3.47;1.60;;;16.30;99.90;;;;;;4156343;28;20052;-67
2022/05/22 00:18:05;;;;;;;4.00;1.65;;;16.30;99.90;;;;;;4155406;28;20033;-67
2022/05/22 00:20:07;;;;;;;5.10;1.80;;;16.30;99.90;;;;;;4154492;28;20025;-67
2022/05/22 00:22:07;;;;;;;5.50;1.73;;;16.30;99.90;;;;;;4156617;28;20034;-66
2022/05/22 00:24:10;;;;;;;3.13;1.77;;;16.30;99.90;;;;;;4158697;28;20022;-67
2022/05/22 00:26:11;;;;;;;4.75;2.00;;;16.30;99.90;;;;;;4160379;28;20022;-66
2022/05/22 00:28:11;;;;;;;7.47;1.73;;;16.30;99.90;;;;;;4155658;28;20377;-67
2022/05/22 00:30:13;;;;;;;5.47;1.92;;;16.30;99.90;;;;;;4158525;28;20115;-67
2022/05/22 00:32:14;;;;;;;3.38;1.58;;;16.40;99.90;;;;;;4154997;28;20083;-67
2022/05/22 00:34:15;;;;;;;5.28;2.08;;;16.30;99.90;;;;;;4159286;28;20033;-67
2022/05/22 00:36:16;;;;;;;4.93;1.92;;;16.30;99.90;;;;;;4155701;28;20508;-67
2022/05/22 00:38:17;;;;;;;7.70;2.15;;;16.30;99.90;;;;;;4157935;28;20167;-67
2022/05/22 00:40:17;;;;;;;9.50;2.03;;;16.40;99.90;;;;;;4153444;28;20033;-67
2022/05/22 00:42:20;;;;;;;2.67;1.52;;;16.30;99.90;;;;;;4152747;28;20117;-67
2022/05/22 00:44:21;;;;;;;3.15;1.70;;;16.40;99.90;;;;;;4156829;28;20045;-67
2022/05/22 00:46:24;;;;;;;4.47;1.98;;;16.40;99.90;;;;;;4157317;28;20033;-67
2022/05/22 00:48:25;;;;;;;6.45;2.10;;;16.40;99.90;;;;;;4155837;28;20476;-66
2022/05/22 00:50:26;;;;;;;3.95;1.52;;;16.30;99.90;;;;;;4153509;28;20176;-67
2022/05/22 00:52:34;;;;;;;7.68;2.03;;;16.40;99.90;;;;;;4157074;28;20072;-67
2022/05/22 00:55:01;;;;;;;6.18;1.75;;;16.40;99.90;;;;;;4156950;28;20065;-67
2022/05/22 00:57:13;;;;;;;6.53;1.80;;;16.40;99.90;;;;;;4142647;28;20022;-67
2022/05/22 00:59:22;;;;;;;7.82;2.35;;;16.40;99.90;;;;;;4155334;28;20033;-67
2022/05/22 01:01:23;;;;;;;4.07;1.70;;;16.40;99.90;;;;;;4158138;28;20488;-67
2022/05/22 01:03:26;;;;;;;4.63;1.98;;;16.40;99.90;;;;;;4156472;28;20045;-67
2022/05/22 01:05:27;;;;;;;;;;;16.40;99.90;;;;;;4156609;28;20095;-66
2022/05/22 01:07:28;;;;;;;3.28;1.40;;;16.30;99.90;;;;;;4154210;28;20012;-67
2022/05/22 01:09:28;;;;;;;3.72;1.65;;;16.40;99.90;;;;;;4156717;28;20041;-67
2022/05/22 01:11:33;;;;;;;5.05;2.08;;;16.30;99.90;;;;;;4155899;28;20045;-66
2022/05/22 01:13:38;;;;;;;4.10;1.70;;;16.40;99.90;;;;;;4154856;28;20045;-68
2022/05/22 01:15:38;;;;;;;3.88;1.95;;;16.40;99.90;;;;;;4158314;28;20041;-67
2022/05/22 01:17:46;;;;;;;5.25;1.80;;;16.40;99.90;;;;;;4156908;28;20037;-67
2022/05/22 01:19:58;;;;;;;4.28;1.70;;;16.40;99.90;;;;;;4155923;28;20034;-67
2022/05/22 01:22:03;;;;;;;3.90;1.90;;;16.40;99.90;;;;;;4158368;28;20040;-66
2022/05/22 01:24:05;;;;;;;4.03;1.52;;;16.40;99.90;;;;;;4157402;28;20057;-67
2022/05/22 01:26:05;;;;;;;3.50;1.95;;;16.30;99.90;;;;;;4157289;28;20103;-67
2022/05/22 01:28:09;;;;;;;5.93;1.58;;;16.30;99.90;;;;;;4155084;28;20041;-67
2022/05/22 01:30:18;;;;;;;4.63;1.60;;;16.30;99.90;;;;;;4156197;28;20040;-67
2022/05/22 01:32:19;;;;;;;4.70;1.60;;;16.30;99.90;;;;;;4154893;28;20443;-66
2022/05/22 01:34:20;;;;;;;4.53;1.92;;;16.20;99.90;;;;;;4157880;28;20040;-67
2022/05/22 01:36:20;;;;;;;3.92;1.95;;;16.20;99.90;;;;;;4156611;28;20074;-66
2022/05/22 01:38:21;;;;;;;3.58;1.65;;;16.10;99.90;;;;;;4155771;28;20637;-67
2022/05/22 01:40:22;;;;;;;3.20;1.30;;;16.10;99.90;;;;;;4157394;28;20037;-67
2022/05/22 01:42:23;;;;;;;3.60;1.63;;;16.00;99.90;;;;;;4158120;28;20042;-67
2022/05/22 01:44:24;;;;;;;4.05;1.95;;;16.00;99.90;;;;;;4157747;28;20044;-67
2022/05/22 01:46:24;;;;;;;5.45;1.95;;;16.00;99.90;;;;;;4158081;28;20042;-67
2022/05/22 01:48:25;;;;;;;8.65;2.58;;;16.00;99.90;;;;;;4155802;28;20053;-67
2022/05/22 01:50:26;;;;;;;4.47;1.70;;;16.00;99.90;;;;;;4154551;28;20037;-66
2022/05/22 01:52:26;;;;;;;3.85;2.15;;;16.00;99.90;;;;;;4157614;28;20044;-66
2022/05/22 01:54:27;;;;;;;3.05;1.65;;;16.00;99.90;;;;;;4155022;28;20038;-67
2022/05/22 01:56:29;;;;;;;4.60;1.70;;;16.00;99.90;;;;;;4157895;28;20492;-67
2022/05/22 01:58:29;;;;;;;3.75;1.80;;;16.00;99.90;;;;;;4156724;28;20121;-66
2022/05/22 02:00:30;;;;;;;3.70;1.98;;;16.00;99.90;;;;;;4152921;28;20386;-67
2022/05/22 02:02:31;;;;;;;3.78;1.85;;;16.00;99.90;;;;;;4153093;28;20484;-67
2022/05/22 02:04:32;;;;;;;6.05;1.92;;;16.00;99.90;;;;;;4156609;28;20041;-67
2022/05/22 02:06:33;;;;;;;5.45;1.85;;;15.90;99.90;;;;;;4152804;28;20405;-67
2022/05/22 02:08:34;;;;;;;3.85;1.65;;;15.90;99.90;;;;;;4157553;28;20252;-67
2022/05/22 02:10:35;;;;;;;5.95;2.15;;;15.90;99.90;;;;;;4152118;28;20045;-67
2022/05/22 02:12:36;;;;;;;4.07;1.90;;;15.90;99.90;;;;;;4157050;28;20041;-67
2022/05/22 02:14:37;;;;;;;5.40;2.00;;;15.90;99.90;;;;;;4152487;28;20084;-67
2022/05/22 02:16:37;;;;;;;4.22;1.95;;;15.80;99.90;;;;;;4155466;28;20132;-67
2022/05/22 02:18:38;;;;;;;2.90;1.70;;;15.80;99.90;;;;;;4155647;28;20033;-67
2022/05/22 02:20:39;;;;;;;2.92;1.73;;;15.80;99.90;;;;;;4156470;28;20516;-67
2022/05/22 02:22:47;;;;;;;2.30;1.55;;;15.70;99.90;;;;;;4155386;28;20128;-67
2022/05/22 02:24:53;;;;;;;4.38;1.70;;;15.70;99.90;;;;;;4156207;28;20493;-67
2022/05/22 02:26:54;;;;;;;3.78;1.67;;;15.70;99.90;;;;;;4156573;28;20037;-67
2022/05/22 02:28:54;;;;;;;4.95;2.13;;;15.70;99.90;;;;;;4157152;28;20088;-67
2022/05/22 02:30:59;;;;;;;4.07;1.98;;;15.60;99.90;;;;;;4156891;28;20492;-67
2022/05/22 02:32:59;;;;;;;4.45;1.98;;;15.60;99.90;;;;;;4157453;28;20029;-67
2022/05/22 02:35:00;;;;;;;3.92;1.90;;;15.60;99.90;;;;;;4158339;28;20104;-67
2022/05/22 02:37:01;;;;;;;3.30;1.73;;;15.50;99.90;;;;;;4157552;28;20049;-66
2022/05/22 02:39:01;;;;;;;3.83;2.08;;;15.50;99.90;;;;;;4154950;28;20065;-66
2022/05/22 02:41:10;;;;;;;2.90;1.42;;;15.50;99.90;;;;;;4156557;28;20025;-67
2022/05/22 02:43:11;;;;;;;3.03;1.80;;;15.50;99.90;;;;;;4154125;28;20111;-67
2022/05/22 02:45:12;;;;;;;4.47;1.88;;;15.50;99.90;;;;;;4157988;28;20116;-67
2022/05/22 02:47:13;;;;;;;4.05;1.90;;;15.40;99.90;;;;;;4157143;28;20080;-67
2022/05/22 02:49:13;;;;;;;3.28;1.63;;;15.40;99.90;;;;;;4157174;28;20104;-67
2022/05/22 02:51:17;;;;;;;2.83;1.52;;;15.40;99.90;;;;;;4155952;28;20393;-68
2022/05/22 02:53:17;;;;;;;3.08;1.95;;;15.40;99.90;;;;;;4155782;28;20060;-67
2022/05/22 02:55:19;;;;;;;3.30;1.70;;;15.40;99.90;;;;;;4154135;28;20046;-67
2022/05/22 02:57:22;;;;;;;4.50;1.77;;;15.40;99.90;;;;;;4154508;28;20415;-67
2022/05/22 02:59:22;;;;;;;4.43;1.73;;;15.40;99.90;;;;;;4155367;28;20041;-67
2022/05/22 03:01:23;;;;;;;4.05;1.98;;;15.40;99.90;;;;;;4154605;28;20026;-67
2022/05/22 03:03:24;;;;;;;3.78;1.58;;;15.40;99.90;;;;;;4156919;28;20041;-67
2022/05/22 03:05:26;;;;;;;3.72;1.77;;;15.40;99.90;;;;;;4156118;28;20111;-67
2022/05/22 03:07:27;;;;;;;4.07;1.73;;;15.40;99.90;;;;;;4155873;28;20470;-66
2022/05/22 03:09:27;;;;;;;3.47;2.08;;;15.40;99.90;;;;;;4157302;28;20033;-66
2022/05/22 03:11:28;;;;;;;5.55;2.10;;;15.30;99.90;;;;;;4152024;28;20109;-66
2022/05/22 03:13:28;;;;;;;5.03;2.05;;;15.30;99.90;;;;;;4148556;28;20041;-66
2022/05/22 03:15:29;;;;;;;5.15;2.38;;;15.30;99.90;;;;;;4151495;28;20080;-67
2022/05/22 03:17:30;;;;;;;4.05;2.00;;;15.30;99.90;;;;;;4154011;28;20092;-66
2022/05/22 03:19:30;;;;;;;3.75;1.77;;;15.30;99.90;;;;;;4156077;28;20423;-67
2022/05/22 03:21:31;;;;;;;4.00;1.70;;;15.30;99.90;;;;;;4154292;28;20042;-68
2022/05/22 03:23:31;;;;;;;4.68;1.67;;;15.20;99.90;;;;;;4156592;28;20030;-67
2022/05/22 03:25:32;;;;;;;3.35;1.75;;;15.20;99.90;;;;;;4154622;28;20041;-68
2022/05/22 03:27:33;;;;;;;3.45;1.70;;;15.20;99.90;;;;;;4157745;28;20480;-68
2022/05/22 03:29:33;;;;;;;4.90;1.90;;;15.20;99.90;;;;;;4158668;28;20041;-67
2022/05/22 03:31:34;;;;;;;3.53;1.80;;;15.20;99.90;;;;;;4160052;28;20038;-67
2022/05/22 03:33:34;;;;;;;4.07;2.10;;;15.20;99.90;;;;;;4158629;28;20045;-67
2022/05/22 03:35:35;;;;;;;4.65;2.05;;;15.20;99.90;;;;;;4158749;28;20183;-67
2022/05/22 03:37:36;;;;;;;5.28;2.20;;;15.10;99.90;;;;;;4157407;28;20045;-67
2022/05/22 03:39:36;;;;;;;4.07;2.10;;;15.10;99.90;;;;;;4158122;28;20385;-67
2022/05/22 03:41:38;;;;;;;3.28;1.60;;;15.10;99.90;;;;;;4157799;28;20047;-68
2022/05/22 03:43:38;;;;;;;5.28;2.03;;;15.10;99.90;;;;;;4161529;28;20037;-68
2022/05/22 03:45:40;;;;;;;4.45;2.28;;;15.10;99.90;;;;;;4158281;28;20430;-68
2022/05/22 03:47:40;;;;;;;2.63;1.75;;;15.00;99.90;;;;;;4161577;28;20083;-68
2022/05/22 03:49:41;;;;;;;2.85;2.00;;;15.10;99.90;;;;;;4160624;28;20045;-68
2022/05/22 03:51:42;;;;;;;3.85;2.22;;;15.00;99.90;;;;;;4152071;28;20101;-67
2022/05/22 03:53:42;;;;;;;7.10;1.77;;;15.00;99.90;;;;;;4157596;28;20057;-67
2022/05/22 03:55:43;;;;;;;5.03;2.22;;;15.00;99.90;;;;;;4147328;28;20045;-68
2022/05/22 03:57:47;;;;;;;3.38;2.00;;;15.00;99.90;;;;;;4157969;28;20033;-68
2022/05/22 03:59:48;;;;;;;3.95;2.35;;;15.00;99.90;;;;;;4157503;28;20068;-67
2022/05/22 04:01:48;;;;;;;3.75;2.00;;;15.00;99.90;;;;;;4155805;28;20394;-68
2022/05/22 04:03:49;;;;;;;3.40;1.60;;;15.00;99.90;;;;;;4154947;28;20048;-68
2022/05/22 04:05:49;;;;;;;3.78;1.90;;;15.00;99.90;;;;;;4157101;28;20030;-68
2022/05/22 04:07:50;;;;;;;4.60;2.05;;;14.90;99.90;;;;;;4156345;28;20105;-67
2022/05/22 04:09:51;;;;;;;6.35;2.33;;;14.90;99.90;;;;;;4159319;28;20048;-68
2022/05/22 04:11:52;;;;;;;5.10;2.40;;;14.90;99.90;;;;;;4152872;28;20036;-67
2022/05/22 04:13:53;;;;;;;4.85;2.42;;;14.90;99.90;;;;;;4150690;28;20947;-67
2022/05/22 04:15:53;;;;;;;3.17;2.10;;;14.90;99.90;;;;;;4154649;28;20094;-68
2022/05/22 04:17:54;;;;;;;3.35;2.10;;;14.90;99.90;;;;;;4153690;28;20044;-68
2022/05/22 04:19:55;;;;;;;5.45;2.10;;;14.90;99.90;;;;;;4155969;28;20026;-67
2022/05/22 04:21:55;;;;;;;3.38;1.77;;;14.90;99.90;;;;;;4155687;28;20160;-68
2022/05/22 04:26:15;;;;;;;3.05;1.65;;;14.90;99.90;;;;;;4153318;28;20042;-67
2022/05/22 04:28:15;;;;;;;4.53;2.00;;;14.90;99.90;;;;;;4157945;28;20044;-68
2022/05/22 04:30:20;;;;;;;2.78;2.10;;;14.90;99.90;;;;;;4154118;28;20377;-68
2022/05/22 04:32:20;;;;;;;5.82;2.22;;;14.90;99.90;;;;;;4155052;28;20446;-68
2022/05/22 04:34:21;;;;;;;4.18;2.17;;;14.90;99.90;;;;;;4156730;28;20121;-68
2022/05/22 04:36:21;;;;;;;5.28;2.35;;;14.90;99.90;;;;;;4156483;28;20044;-68
2022/05/22 04:38:22;;;;;;;6.85;2.17;;;14.90;99.90;;;;;;4158492;28;20124;-68
2022/05/22 04:40:22;;;;;;;5.22;2.70;;;14.90;99.90;;;;;;4158202;28;20591;-68
2022/05/22 04:42:23;;;;;;;5.65;2.60;;;14.90;99.90;;;;;;4155690;28;20099;-68
2022/05/22 04:44:24;;;;;;;5.03;2.45;;;14.90;99.90;;;;;;4156346;28;20050;-68
2022/05/22 04:46:25;;;;;;;3.72;2.45;;;14.90;99.90;;;;;;4153890;28;20048;-68
2022/05/22 04:48:27;;;;;;;5.03;2.38;;;14.90;99.90;;;;;;4157515;28;20066;-68
2022/05/22 04:50:27;;;;;;;4.00;2.55;;;14.90;99.90;;;;;;4157294;28;20576;-67
2022/05/22 04:52:28;;;;;;;5.28;2.60;;;14.90;99.90;;;;;;4158213;28;20029;-67
2022/05/22 04:54:28;;;;;;;5.03;2.47;;;14.90;99.90;;;;;;4155744;28;20607;-67
2022/05/22 04:56:29;;;;;;;8.13;2.88;;;15.00;99.90;;;;;;4155728;28;20030;-68
2022/05/22 04:58:30;;;;;;;4.13;2.30;;;14.90;99.90;;;;;;4152954;28;20179;-68
2022/05/22 05:00:30;;;;;;;4.65;2.28;;;15.00;99.90;;;;;;4158974;28;20034;-68
2022/05/22 05:02:31;;;;;;;5.13;2.42;;;15.00;99.90;;;;;;4155928;28;20083;-68
2022/05/22 05:04:32;;;;;;;4.70;2.38;;;15.00;99.90;;;;;;4156175;28;20033;-68
2022/05/22 05:06:32;;;;;;;6.03;2.45;;;15.10;99.90;;;;;;4155639;28;20033;-68
2022/05/22 05:08:33;;;;;;;4.72;2.58;;;15.10;99.90;;;;;;4156429;28;20057;-68
2022/05/22 05:10:34;;;;;;;3.40;2.28;;;15.10;99.90;;;;;;4152656;28;20516;-68
2022/05/22 05:12:39;;;;;;;4.22;2.55;;;15.20;99.90;;;;;;4151479;28;20033;-67
2022/05/22 05:14:39;;;;;;;5.15;2.70;;;15.20;99.90;;;;;;4158460;28;20022;-67
2022/05/22 05:16:40;;;;;;;5.20;2.50;;;15.30;99.90;;;;;;4156367;28;20476;-68
2022/05/22 05:18:41;;;;;;;5.70;2.58;;;15.40;99.90;;;;;;4158775;28;20037;-68
2022/05/22 05:20:45;;;;;;;6.40;2.75;;;15.40;99.90;;;;;;4157967;28;20033;-68
2022/05/22 05:22:45;;;;;;;5.03;2.40;;;15.40;99.90;;;;;;4155997;28;20419;-68
2022/05/22 05:24:46;;;;;;;6.25;2.78;;;15.50;99.90;;;;;;4156300;28;20115;-68
2022/05/22 05:26:50;;;;;;;4.00;2.13;;;15.50;99.90;;;;;;4156348;28;20029;-68
2022/05/22 05:28:51;;;;;;;5.75;2.92;;;15.60;99.90;;;;;;4157788;28;20041;-68
2022/05/22 05:30:52;;;;;;;3.40;2.35;;;15.60;99.90;;;;;;4157095;28;20447;-68
2022/05/22 05:32:56;;;;;;;6.07;2.88;;;15.70;99.90;;;;;;4157528;28;20052;-68
2022/05/22 05:35:02;;;;;;;7.38;3.05;;;15.70;99.90;;;;;;4158949;28;20492;-68
2022/05/22 05:37:03;;;;;;;4.38;3.00;;;15.80;99.90;;;;;;4156608;28;20441;-68
2022/05/22 05:39:04;;;;;;;5.50;2.90;;;15.90;99.90;;;;;;4157637;28;20083;-68
2022/05/22 05:41:05;;;;;;;6.70;3.17;;;16.00;99.90;;;;;;4156175;28;20025;-68
2022/05/22 05:43:06;;;;;;;7.43;2.95;;;16.10;99.90;;;;;;4154088;28;20136;-68
2022/05/22 05:45:10;;;;;;;6.70;3.22;;;16.10;99.90;;;;;;4158226;28;20508;-70
2022/05/22 05:47:11;;;;;;;6.22;3.25;;;16.20;99.90;;;;;;4157424;28;20033;-68
2022/05/22 05:49:13;;;;;;;5.25;3.20;;;16.20;99.90;;;;;;4156587;28;20396;-68
2022/05/22 05:51:13;;;;;;;7.55;3.67;;;16.40;99.90;;;;;;4154060;28;20034;-68
2022/05/22 05:53:14;;;;;;;6.80;3.40;;;16.30;99.90;;;;;;4155027;28;20041;-68
2022/05/22 05:55:14;;;;;;;7.60;3.65;;;16.40;99.90;;;;;;4153708;28;20037;-68
2022/05/22 05:57:15;;;;;;;8.00;3.70;;;16.30;99.90;;;;;;4157062;28;20045;-68
2022/05/22 05:59:16;;;;;;;8.90;4.30;;;16.30;99.90;;;;;;4159279;28;20083;-68
2022/05/22 06:01:18;;;;;;;9.70;4.35;;;16.10;99.90;;;;;;4156748;28;20119;-68
2022/05/22 06:03:18;;;;;;;9.43;4.22;;;16.10;99.90;;;;;;4157903;28;20034;-68
2022/05/22 06:05:19;;;;;;;8.35;3.92;;;16.00;99.90;;;;;;4153521;28;20894;-68
2022/05/22 06:07:20;;;;;;;5.72;3.83;;;16.00;99.90;;;;;;4156291;28;20107;-68
2022/05/22 06:09:21;;;;;;;7.40;4.18;;;16.10;99.90;;;;;;4156878;28;20053;-70
2022/05/22 06:11:22;;;;;;;8.45;3.80;;;16.10;99.90;;;;;;4154091;28;20034;-70
2022/05/22 06:13:23;;;;;;;8.93;4.07;;;16.20;99.90;;;;;;4157697;28;20045;-70
2022/05/22 06:15:23;;;;;;;12.45;4.68;;;16.30;99.90;;;;;;4154169;28;20026;-72
2022/05/22 06:17:36;;;;;;;8.75;4.47;;;16.40;99.90;;;;;;4154087;28;20117;-71
2022/05/22 06:19:55;;;;;;;;;;;16.70;99.90;;;;;;4156442;28;20044;-71
2022/05/22 06:21:56;;;;;;;7.60;3.38;;;17.00;99.90;;;;;;4154605;28;19909;-71
2022/05/22 06:23:56;;;;;;;7.93;3.45;;;17.30;99.90;;;;;;4154915;28;20392;-72
2022/05/22 06:25:57;;;;;;;9.60;3.88;;;17.70;99.90;;;;;;4154454;28;20069;-71
2022/05/22 06:27:57;;;;;;;8.32;3.75;;;18.10;99.90;;;;;;4157353;28;20073;-71
2022/05/22 06:29:58;;;;;;;9.43;3.50;;;18.40;99.90;;;;;;4152920;28;20045;-71
2022/05/22 06:31:59;;;;;;;6.32;3.47;;;18.70;99.90;;;;;;4154334;28;20042;-72
2022/05/22 06:33:59;;;;;;;7.68;3.88;;;19.10;99.90;;;;;;4158948;28;20036;-71
2022/05/22 06:36:09;;;;;;;10.48;3.70;;;19.30;99.90;;;;;;4149724;28;20468;-71
2022/05/22 06:40:29;;;;;;;9.27;3.55;;;19.80;99.90;;;;;;4151167;28;20038;-71
2022/05/22 06:42:34;;;;;;;7.78;3.05;;;19.90;99.90;;;;;;4134548;28;20197;-71
2022/05/22 06:44:34;;;;;;;8.48;3.55;;;20.00;99.90;;;;;;4154285;28;20037;-72
2022/05/22 06:46:35;;;;;;;7.15;3.63;;;20.20;99.90;;;;;;4151619;28;20030;-72
2022/05/22 06:48:36;;;;;;;7.40;3.58;;;20.40;99.90;;;;;;4157348;28;20048;-72
2022/05/22 06:50:36;;;;;;;8.50;3.30;;;20.50;99.90;;;;;;4152223;28;20053;-72
2022/05/22 06:52:38;;;;;;;6.20;3.42;;;20.60;99.90;;;;;;4155756;28;20034;-72
2022/05/22 06:54:39;;;;;;;14.37;3.87;;;20.80;99.90;;;;;;4156258;28;20044;-72
2022/05/22 06:56:40;;;;;;;8.93;3.97;;;20.90;99.90;;;;;;4150498;28;20814;-73
2022/05/22 06:58:40;;;;;;;7.75;3.90;;;21.00;99.90;;;;;;4151125;28;20114;-72
2022/05/22 07:00:41;;;;;;;7.90;4.68;;;21.10;99.90;;;;;;4154909;28;20046;-73
2022/05/22 07:02:42;;;;;;;9.60;4.22;;;21.20;99.90;;;;;;4154464;28;20079;-72
2022/05/22 07:04:43;;;;;;;8.88;3.95;;;21.30;99.90;;;;;;4154421;28;20083;-72
2022/05/22 07:06:44;;;;;;;8.52;3.78;;;21.40;99.90;;;;;;4158938;28;20030;-70
2022/05/22 07:08:44;;;;;;;7.93;3.83;;;21.50;99.90;;;;;;4157643;28;20053;-69
2022/05/22 07:13:04;;;;;;;8.60;4.30;;;21.70;99.90;;;;;;4154792;28;20033;-69
2022/05/22 07:15:06;;;;;;;6.45;3.75;;;21.70;99.90;;;;;;4159780;28;20040;-70
2022/05/22 07:17:08;;;;;;;8.45;3.72;;;21.80;99.90;;;;;;4156194;28;20060;-72
2022/05/22 07:19:10;;;;;;;8.68;4.15;;;21.80;99.90;;;;;;4158782;28;20088;-72
2022/05/22 07:21:11;;;;;;;10.20;4.38;;;21.80;99.90;;;;;;4153338;28;20112;-72
2022/05/22 07:23:12;;;;;;;7.45;4.00;;;21.70;99.90;;;;;;4157955;28;20030;-71
2022/05/22 07:25:12;;;;;;;9.20;3.85;;;21.60;99.90;;;;;;4154854;28;20030;-72
2022/05/22 07:27:14;;;;;;;7.45;3.97;;;21.60;99.90;;;;;;4161329;28;20508;-72
2022/05/22 07:29:15;;;;;;;10.50;3.93;;;21.60;99.90;;;;;;4155983;28;20400;-72
2022/05/22 07:31:21;;;;;;;6.82;3.63;;;21.60;99.90;;;;;;4159182;28;20121;-71
2022/05/22 07:33:22;;;;;;;6.70;3.92;;;21.70;99.90;;;;;;4158315;28;20034;-71
2022/05/22 07:35:22;;;;;;;10.73;3.70;;;21.60;99.90;;;;;;4160479;28;20039;-71
2022/05/22 07:37:23;;;;;;;10.38;3.67;;;21.60;99.90;;;;;;4159593;28;20038;-71
2022/05/22 07:39:24;;;;;;;9.80;4.22;;;21.70;99.90;;;;;;4157463;28;20045;-72
2022/05/22 07:41:25;;;;;;;12.38;4.45;;;21.80;99.90;;;;;;4156064;28;20072;-71
2022/05/22 07:43:25;;;;;;;9.30;3.40;;;21.70;99.80;;;;;;4153665;28;20629;-72
2022/05/22 07:45:26;;;;;;;10.63;3.97;;;21.70;99.90;;;;;;4152278;28;20489;-71
2022/05/22 07:47:27;;;;;;;10.35;4.18;;;21.70;99.80;;;;;;4156323;28;20042;-71
2022/05/22 07:51:47;;;;;;;9.45;4.00;;;21.80;99.90;;;;;;4153781;28;20037;-71
2022/05/22 07:53:49;;;;;;;13.02;4.78;;;21.90;99.90;;;;;;4160828;28;20068;-71
2022/05/22 07:55:50;;;;;;;12.57;4.07;;;21.80;98.90;;;;;;4158078;28;20037;-70
2022/05/22 07:57:50;;;;;;;8.27;3.38;;;21.80;98.40;;;;;;4153977;28;20029;-71
2022/05/22 07:59:51;;;;;;;6.68;3.13;;;21.90;99.90;;;;;;4157695;28;20034;-71
2022/05/22 08:01:51;;;;;;;6.70;2.95;;;22.00;99.10;;;;;;4155876;28;20040;-71
2022/05/22 08:03:52;;;;;;;12.70;3.05;;;22.00;97.60;;;;;;4157529;28;20148;-71
2022/05/22 08:05:55;;;;;;;10.40;3.13;;;22.10;99.50;;;;;;4155885;28;20387;-71
2022/05/22 08:07:55;;;;;;;5.93;2.35;;;22.10;96.70;;;;;;4152242;28;20057;-71
2022/05/22 08:09:56;;;;;;;4.28;1.80;;;22.20;98.10;;;;;;4158301;28;20040;-71
2022/05/22 08:11:56;;;;;;;8.82;2.17;;;22.30;97.30;;;;;;4158412;28;20129;-71
2022/05/22 08:13:57;;;;;;;5.90;2.17;;;22.50;97.60;;;;;;4157274;28;20677;-70
2022/05/22 08:15:58;;;;;;;6.07;2.22;;;22.60;96.40;;;;;;4155488;28;20033;-71
2022/05/22 08:17:59;;;;;;;7.53;2.33;;;22.70;97.90;;;;;;4155990;28;20092;-71
2022/05/22 08:19:59;;;;;;;6.30;2.15;;;22.90;97.40;;;;;;4157259;28;20473;-71
2022/05/22 08:22:00;;;;;;;8.27;2.28;;;23.00;96.60;;;;;;4156972;28;20136;-71
2022/05/22 08:24:01;;;;;;;7.65;1.95;;;23.00;95.30;;;;;;4157319;28;20079;-71
2022/05/22 08:26:02;;;;;;;7.97;2.90;;;23.20;97.20;;;;;;4156748;28;20094;-71
2022/05/22 08:28:04;;;;;;;5.72;2.25;;;23.20;96.90;;;;;;4158246;28;20037;-71
2022/05/22 08:30:05;;;;;;;4.72;1.90;;;23.30;96.00;;;;;;4157172;28;20123;-71
2022/05/22 08:32:06;;;;;;;5.22;1.77;;;23.30;95.70;;;;;;4157977;28;20037;-70
2022/05/22 08:34:07;;;;;;;8.68;1.88;;;23.40;95.90;;;;;;4158869;28;20064;-70
2022/05/22 08:36:08;;;;;;;4.45;2.08;;;23.50;94.60;;;;;;4160083;28;20041;-71
2022/05/22 08:38:09;;;;;;;6.40;2.45;;;23.50;93.70;;;;;;4155275;28;20177;-71
2022/05/22 08:40:13;;;;;;;5.72;2.55;;;23.40;91.00;;;;;;4156955;28;20045;-71
2022/05/22 08:42:19;;;;;;;5.43;2.03;;;23.40;95.20;;;;;;4157218;28;20103;-71
2022/05/22 08:44:29;;;;;;;5.50;2.28;;;23.40;93.30;;;;;;4159427;28;20056;-71
2022/05/22 08:46:47;;;;;;;6.85;2.50;;;23.50;92.90;;;;;;4156516;28;20049;-71
2022/05/22 08:48:53;;;;;;;5.70;2.20;;;23.30;91.30;;;;;;4158540;28;20412;-70
2022/05/22 08:50:57;;;;;;;9.82;3.10;;;23.20;94.00;;;;;;4157733;28;20034;-70
2022/05/22 08:53:03;;;;;;;10.63;2.83;;;23.00;90.00;;;;;;4158642;28;20045;-71
2022/05/22 08:55:09;;;;;;;6.88;3.00;;;22.80;91.40;;;;;;4156321;28;20029;-71
2022/05/22 09:00:11;;;;;;;5.53;2.33;;;22.80;91.60;;;;;;4151455;28;20041;-71
2022/05/22 09:02:21;;;;;;;5.20;2.53;;;22.90;94.50;;;;;;4153194;28;20040;-71
2022/05/22 09:04:37;;;;;;;6.45;2.45;;;23.10;93.60;;;;;;4151971;28;20067;-71
2022/05/22 09:07:05;;;;;;;5.57;2.63;;;23.20;93.90;;;;;;4156858;28;20037;-70
2022/05/22 09:09:06;;;;;;;7.88;2.85;;;23.30;93.00;;;;;;4157477;28;20057;-70
2022/05/22 09:11:44;;;;;;;7.32;3.28;;;23.30;91.50;;;;;;4152454;28;20468;-71
2022/05/22 09:13:55;;;;;;;5.63;2.70;;;23.50;92.10;;;;;;4153388;28;20477;-70
2022/05/22 09:16:04;;;;;;;7.82;3.13;;;23.60;93.50;;;;;;4157586;28;20034;-71
2022/05/22 09:18:31;;;;;;;8.25;2.88;;;23.70;91.80;;;;;;4157117;28;20042;-70
2022/05/22 09:20:55;;;;;;;7.38;2.78;;;23.80;91.70;;;;;;4154374;28;20500;-70
2022/05/22 09:22:58;;;;;;;8.73;3.40;;;23.80;91.90;;;;;;4154730;28;20041;-70
2022/05/22 09:25:11;;;;;;;6.53;3.13;;;23.30;90.00;;;;;;4157508;28;20045;-70
2022/05/22 09:27:17;;;;;;;;;;;23.10;89.50;;;;;;4154196;28;20108;-71
2022/05/22 09:29:29;;;;;;;5.63;2.42;;;23.20;90.30;;;;;;4155837;28;19924;-70
2022/05/22 09:32:00;;;;;;;6.47;2.50;;;23.20;93.00;;;;;;4154667;28;20108;-70
2022/05/22 09:34:12;;;;;;;5.70;2.38;;;23.40;92.60;;;;;;4152681;28;20037;-70
2022/05/22 09:36:27;;;;;;;6.25;2.95;;;23.30;90.00;;;;;;4156482;28;20072;-71
2022/05/22 09:38:49;;;;;;;6.90;2.95;;;23.40;90.90;;;;;;4152967;28;20049;-70
2022/05/22 09:40:56;;;;;;;6.63;2.55;;;23.50;90.10;;;;;;4155170;28;20041;-70
2022/05/22 09:43:26;;;;;;;6.68;2.67;;;23.50;90.10;;;;;;4155974;28;20439;-71
2022/05/22 09:45:52;;;;;;;7.50;2.88;;;23.50;89.00;;;;;;4140507;28;20468;-70
2022/05/22 09:47:56;;;;;;;8.40;2.90;;;23.60;91.80;;;;;;4143864;28;20033;-71
2022/05/22 09:49:59;;;;;;;5.90;2.45;;;23.70;91.40;;;;;;4156958;28;20040;-71
2022/05/22 09:52:05;;;;;;;6.25;2.60;;;23.70;90.50;;;;;;4156775;28;20635;-70
2022/05/22 09:54:26;;;;;;;8.07;2.95;;;23.70;90.60;;;;;;4154746;28;20099;-71
2022/05/22 09:56:58;;;;;;;6.00;2.45;;;23.80;92.60;;;;;;4154071;28;20463;-71
2022/05/22 09:59:27;;;;;;;7.32;2.72;;;23.80;92.60;;;;;;4154846;28;20052;-71
2022/05/22 10:01:38;;;;;;;5.15;2.60;;;23.80;92.40;;;;;;4155141;28;20044;-71
2022/05/22 10:04:09;;;;;;;6.53;2.92;;;23.80;91.30;;;;;;4155736;28;20109;-70
2022/05/22 10:06:27;;;;;;;7.35;2.85;;;23.80;92.20;;;;;;4155306;28;20034;-70
2022/05/22 10:09:05;;;;;;;5.25;2.20;;;23.70;92.20;;;;;;4155536;28;20073;-71
2022/05/22 10:11:11;;;;;;;6.72;2.85;;;23.80;92.80;;;;;;4157860;28;20036;-71
2022/05/22 10:13:53;;;;;;;8.70;3.80;;;23.60;88.10;;;;;;4158227;28;20067;-71
2022/05/22 10:16:18;;;;;;;5.55;2.80;;;23.50;89.60;;;;;;4154124;28;20115;-70
2022/05/22 10:18:28;;;;;;;6.90;3.00;;;23.30;88.80;;;;;;4156717;28;20041;-71
2022/05/22 10:20:46;;;;;;;8.32;3.35;;;23.30;90.60;;;;;;4155249;28;20042;-70
2022/05/22 10:23:16;;;;;;;6.50;2.47;;;23.40;90.90;;;;;;4157322;28;20049;-71
2022/05/22 10:25:54;;;;;;;9.77;3.17;;;23.30;90.00;;;;;;4153589;28;20481;-71
2022/05/22 10:28:09;;;;;;;5.00;3.00;;;23.20;90.00;;;;;;4151845;28;20033;-71
2022/05/22 10:30:21;;;;;;;5.65;2.95;;;23.20;90.40;;;;;;4156473;28;20075;-71
2022/05/22 10:32:29;;;;;;;8.30;3.28;;;23.20;92.30;;;;;;4155942;28;20103;-71
2022/05/22 10:34:51;;;;;;;7.63;3.38;;;23.20;93.80;;;;;;4156584;28;20043;-70
2022/05/22 10:36:57;;;;;;;6.00;3.30;;;23.30;92.90;;;;;;4155822;28;20041;-71
2022/05/22 10:39:10;;;;;;;4.82;2.50;;;23.30;93.00;;;;;;4155422;28;20057;-71
2022/05/22 10:43:54;;;;;;;6.57;3.20;;;23.50;93.40;;;;;;4155605;28;20056;-70
2022/05/22 10:45:54;;;;;;;4.20;2.58;;;23.60;92.90;;;;;;4157554;28;20045;-70
2022/05/22 10:48:27;;;;;;;5.72;2.58;;;23.60;93.00;;;;;;4157353;28;20033;-71
2022/05/22 10:50:30;;;;;;;6.57;2.55;;;23.70;92.70;;;;;;4157771;28;20871;-71
2022/05/22 10:52:37;;;;;;;6.07;3.05;;;23.70;92.80;;;;;;4159878;28;20026;-70
2022/05/22 10:54:50;;;;;;;7.53;3.35;;;23.80;92.50;;;;;;4155453;28;20057;-70
2022/05/22 10:56:51;;;;;;;12.27;4.43;;;23.70;91.60;;;;;;4153518;28;20461;-71
2022/05/22 10:59:11;;;;;;;10.13;4.32;;;23.50;89.30;;;;;;4158365;28;20052;-71
2022/05/22 11:01:19;;;;;;;6.88;3.25;;;23.50;87.40;;;;;;4158437;28;20033;-70
2022/05/22 11:03:26;;;;;;;6.53;2.85;;;23.60;90.50;;;;;;4161539;28;20032;-70
2022/05/22 11:05:28;;;;;;;9.65;3.70;;;23.60;91.90;;;;;;4157232;28;20081;-71